Time;durP1;ratioP1;P1;durP2;ratioP2;P2;SDS_P1;SDS_P2;PMS_P1;PMS_P2;Temp;Humidity;BMP_temperature;BMP_pressure;BME280_temperature;BME280_humidity;BME280_pressure;Samples;Min_cycle;Max_cycle;Signal;HPM_P1;HPM_P2
2023/10/04 00:04:01;;;;;;;5.77;3.63;;;;;;;21.92;68.72;101073.34;10372367;28;97506;-78
2023/10/04 00:09:06;;;;;;;4.10;3.13;;;;;;;21.63;70.23;101083.50;10339405;28;96821;-78
2023/10/04 00:14:10;;;;;;;5.15;3.33;;;;;;;21.83;68.89;101085.59;10340227;28;97279;-78
2023/10/04 00:19:14;;;;;;;4.40;3.05;;;;;;;21.57;70.51;101085.78;10340043;28;97038;-78
2023/10/04 00:24:19;;;;;;;4.93;3.03;;;;;;;21.56;70.10;101090.28;10379647;28;97049;-79
2023/10/04 00:29:22;;;;;;;9.00;4.07;;;;;;;21.41;70.71;101078.81;10380604;28;96798;-78
2023/10/04 00:34:27;;;;;;;4.72;3.55;;;;;;;21.40;71.00;101090.50;10381124;28;97066;-78
2023/10/04 00:39:34;;;;;;;4.82;3.15;;;;;;;21.43;70.41;101090.28;10378755;28;96846;-78
2023/10/04 00:44:37;;;;;;;6.00;3.30;;;;;;;21.43;70.09;101095.66;10380791;28;96917;-78
2023/10/04 00:49:45;;;;;;;6.65;3.30;;;;;;;21.37;70.66;101097.91;10380100;28;96814;-78
2023/10/04 00:54:50;;;;;;;3.47;2.83;;;;;;;21.30;70.97;101099.31;10379502;28;97266;-78
2023/10/04 00:59:54;;;;;;;5.45;3.55;;;;;;;21.26;70.67;101090.63;10378356;28;96826;-78
2023/10/04 01:04:57;;;;;;;4.82;2.97;;;;;;;21.40;70.04;101092.31;10363394;28;96915;-79
2023/10/04 01:10:03;;;;;;;4.20;2.90;;;;;;;21.51;69.42;101089.75;10337877;28;96739;-79
2023/10/04 01:15:21;;;;;;;5.20;3.38;;;;;;;21.53;69.26;101085.16;10339440;28;96734;-78
2023/10/04 01:20:30;;;;;;;4.00;2.85;;;;;;;21.68;68.16;101085.84;10337615;28;97183;-79
2023/10/04 01:25:37;;;;;;;5.40;2.85;;;;;;;21.56;68.70;101081.38;10338324;28;96990;-78
2023/10/04 01:30:44;;;;;;;4.32;2.53;;;;;;;21.57;68.27;101081.28;10336037;28;97285;-79
2023/10/04 01:35:49;;;;;;;5.45;2.67;;;;;;;21.62;67.67;101084.50;10337469;28;96633;-78
2023/10/04 01:40:56;;;;;;;4.80;2.38;;;;;;;21.63;67.10;101088.00;10337143;28;96705;-79
2023/10/04 01:46:00;;;;;;;3.38;2.35;;;;;;;21.59;67.41;101095.41;10338173;28;96924;-78
2023/10/04 01:51:06;;;;;;;4.07;2.72;;;;;;;21.62;67.44;101100.56;10336828;28;96973;-78
2023/10/04 01:56:11;;;;;;;4.43;3.00;;;;;;;21.62;67.23;101097.88;10336774;28;96695;-78
2023/10/04 02:01:16;;;;;;;5.70;2.90;;;;;;;21.71;66.36;101094.53;10336794;28;97223;-78
2023/10/04 02:06:20;;;;;;;4.05;2.50;;;;;;;21.67;66.56;101082.34;10337591;28;97078;-79
2023/10/04 02:11:24;;;;;;;6.97;2.80;;;;;;;21.77;65.89;101077.16;10336362;28;96696;-78
2023/10/04 02:16:30;;;;;;;4.57;2.35;;;;;;;21.68;65.96;101073.31;10335973;28;96795;-78
2023/10/04 02:21:38;;;;;;;4.32;2.25;;;;;;;21.52;66.43;101072.69;10335398;28;96708;-78
2023/10/04 02:26:43;;;;;;;3.33;2.15;;;;;;;21.51;66.28;101081.72;10335617;28;96718;-78
2023/10/04 02:31:46;;;;;;;5.47;2.88;;;;;;;21.14;68.44;101080.75;10335289;28;97157;-78
2023/10/04 02:36:51;;;;;;;3.88;2.47;;;;;;;21.25;67.64;101077.34;10335147;28;96753;-78
2023/10/04 02:41:56;;;;;;;4.75;2.30;;;;;;;21.45;66.36;101077.66;10330912;28;97302;-78
2023/10/04 02:47:06;;;;;;;3.88;2.30;;;;;;;21.56;65.85;101078.69;10294307;28;96685;-78
2023/10/04 02:52:12;;;;;;;4.68;2.25;;;;;;;21.63;65.52;101078.16;10293826;28;96928;-78
2023/10/04 02:57:16;;;;;;;3.33;2.28;;;;;;;21.58;65.10;101076.78;10333949;28;97168;-78
2023/10/04 03:02:20;;;;;;;3.13;2.10;;;;;;;21.61;65.02;101077.41;10333993;28;97260;-79
2023/10/04 03:07:27;;;;;;;3.60;2.22;;;;;;;21.65;64.26;101068.19;10334865;28;97099;-78
2023/10/04 03:12:35;;;;;;;4.07;2.10;;;;;;;21.67;63.98;101068.94;10356801;28;96721;-78
2023/10/04 03:17:39;;;;;;;3.83;2.05;;;;;;;21.72;63.74;101069.47;10375941;28;97222;-78
2023/10/04 03:22:42;;;;;;;4.15;2.25;;;;;;;21.70;63.68;101065.16;10378056;28;96632;-78
2023/10/04 03:27:47;;;;;;;2.92;2.17;;;;;;;21.69;63.54;101061.66;10373416;28;97415;-78
2023/10/04 03:32:52;;;;;;;4.40;1.90;;;;;;;21.69;63.08;101067.00;10341435;28;96635;-78
2023/10/04 03:37:58;;;;;;;2.95;1.98;;;;;;;21.71;63.17;101062.38;10340866;28;96674;-78
2023/10/04 03:43:05;;;;;;;2.83;1.80;;;;;;;21.69;62.92;101060.78;10340672;28;96901;-78
2023/10/04 03:48:14;;;;;;;4.50;1.73;;;;;;;21.66;62.88;101061.03;10338367;28;96820;-78
2023/10/04 03:53:20;;;;;;;3.92;1.67;;;;;;;21.69;62.55;101064.34;10340763;28;97443;-78
2023/10/04 03:58:25;;;;;;;3.70;2.05;;;;;;;21.67;62.39;101060.03;10340318;28;97186;-78
2023/10/04 04:03:28;;;;;;;3.00;1.80;;;;;;;21.66;62.28;101061.84;10339725;28;97413;-78
2023/10/04 04:08:32;;;;;;;4.80;1.93;;;;;;;21.69;62.09;101063.47;10340039;28;96756;-78
2023/10/04 04:13:38;;;;;;;2.58;1.90;;;;;;;21.68;61.99;101067.97;10340091;28;96681;-78
2023/10/04 04:18:41;;;;;;;2.80;1.58;;;;;;;21.64;62.11;101069.13;10348913;28;96657;-79
2023/10/04 04:23:46;;;;;;;2.10;1.58;;;;;;;21.56;62.37;101082.25;10380803;28;97099;-78
2023/10/04 04:28:51;;;;;;;;;;;;;;;21.50;62.18;101077.34;10381055;28;96684;-78
2023/10/04 04:33:58;;;;;;;4.80;2.10;;;;;;;21.52;62.32;101076.25;10379701;28;97380;-78
2023/10/04 04:39:05;;;;;;;3.75;1.80;;;;;;;21.42;62.24;101091.28;10380417;28;97198;-78
2023/10/04 04:44:11;;;;;;;4.22;2.20;;;;;;;21.43;62.24;101094.81;10371140;28;96676;-78
2023/10/04 04:49:15;;;;;;;4.40;2.10;;;;;;;21.39;62.05;101093.31;10338859;28;96804;-78
2023/10/04 04:54:19;;;;;;;4.93;1.65;;;;;;;21.40;62.06;101098.53;10360221;28;96721;-78
2023/10/04 04:59:24;;;;;;;2.80;1.77;;;;;;;21.34;62.29;101095.47;10379642;28;96729;-78
2023/10/04 05:04:29;;;;;;;3.92;1.95;;;;;;;21.34;61.93;101104.34;10379922;28;96782;-78
2023/10/04 05:09:34;;;;;;;2.28;1.55;;;;;;;21.30;62.00;101113.56;10378493;28;96761;-78
2023/10/04 05:14:39;;;;;;;3.15;2.13;;;;;;;21.25;62.51;101120.19;10379391;28;96792;-78
2023/10/04 05:19:42;;;;;;;2.33;1.70;;;;;;;21.23;62.19;101124.78;10378857;28;97580;-78
2023/10/04 05:24:47;;;;;;;2.50;1.52;;;;;;;21.17;62.52;101128.75;10379214;28;96717;-78
2023/10/04 05:29:52;;;;;;;2.53;1.80;;;;;;;21.21;61.92;101127.56;10378289;28;96783;-78
2023/10/04 05:34:55;;;;;;;4.45;2.40;;;;;;;21.09;62.46;101131.06;10378659;28;96751;-78
2023/10/04 05:39:58;;;;;;;2.30;1.55;;;;;;;21.10;62.64;101132.78;10378641;28;97569;-78
2023/10/04 05:45:05;;;;;;;2.63;1.63;;;;;;;21.03;62.81;101141.34;10354433;28;97128;-78
2023/10/04 05:50:10;;;;;;;2.15;1.52;;;;;;;20.96;62.98;101142.72;10337019;28;97190;-78
2023/10/04 05:55:16;;;;;;;2.33;1.70;;;;;;;20.94;62.85;101133.94;10336499;28;96789;-78
2023/10/04 06:00:27;;;;;;;2.55;1.73;;;;;;;20.95;62.84;101144.53;10336765;28;96988;-78
2023/10/04 06:05:31;;;;;;;1.70;1.50;;;;;;;21.01;62.38;101143.28;10336244;28;96673;-78
2023/10/04 06:10:37;;;;;;;4.13;1.50;;;;;;;20.96;62.55;101140.06;10335845;28;96849;-78
2023/10/04 06:15:44;;;;;;;2.92;1.60;;;;;;;20.99;62.31;101145.19;10335956;28;97170;-78
2023/10/04 06:20:48;;;;;;;3.17;1.83;;;;;;;20.98;62.27;101143.50;10336740;28;97341;-78
2023/10/04 06:25:53;;;;;;;2.33;1.52;;;;;;;20.94;62.28;101155.34;10335778;28;96705;-78
2023/10/04 06:30:57;;;;;;;2.80;1.30;;;;;;;20.92;62.45;101149.25;10335427;28;96720;-78
2023/10/04 06:36:01;;;;;;;2.58;1.40;;;;;;;20.90;62.59;101153.84;10354538;28;96734;-78
2023/10/04 06:41:05;;;;;;;3.15;1.60;;;;;;;20.87;62.52;101162.06;10376723;28;96687;-78
2023/10/04 06:46:12;;;;;;;2.00;1.27;;;;;;;20.87;62.54;101159.41;10341318;28;96644;-79
2023/10/04 06:51:16;;;;;;;2.22;1.40;;;;;;;20.87;62.69;101162.94;10335333;28;96750;-78
2023/10/04 06:56:20;;;;;;;4.17;1.50;;;;;;;20.88;62.61;101171.84;10334323;28;97250;-78
2023/10/04 07:01:29;;;;;;;2.47;1.70;;;;;;;20.85;62.63;101172.88;10334307;28;97559;-78
2023/10/04 07:06:32;;;;;;;2.42;1.50;;;;;;;20.90;62.67;101185.94;10334360;28;96570;-78
2023/10/04 07:11:36;;;;;;;1.77;1.15;;;;;;;20.91;62.62;101185.00;10336137;28;96938;-78
2023/10/04 07:16:41;;;;;;;2.80;1.50;;;;;;;20.95;62.47;101186.50;10334893;28;96804;-78
2023/10/04 07:21:44;;;;;;;2.95;1.52;;;;;;;21.64;60.48;101178.16;10334477;28;96759;-78
2023/10/04 07:26:49;;;;;;;2.95;1.25;;;;;;;22.55;58.13;101190.16;10332684;28;96874;-78
2023/10/04 07:31:57;;;;;;;2.97;1.50;;;;;;;23.59;56.16;101187.53;10333937;28;96816;-79
2023/10/04 07:37:00;;;;;;;2.60;1.50;;;;;;;23.87;54.68;101175.44;10333951;28;97320;-79
2023/10/04 07:42:06;;;;;;;2.30;1.20;;;;;;;24.46;53.08;101192.13;10333900;28;97256;-79
2023/10/04 07:47:10;;;;;;;2.95;1.13;;;;;;;24.76;51.85;101192.25;10333681;28;97416;-79
2023/10/04 07:52:15;;;;;;;3.47;1.67;;;;;;;25.46;50.61;101182.63;10333575;28;97026;-79
2023/10/04 07:57:19;;;;;;;4.07;1.50;;;;;;;25.51;50.02;101185.78;10333168;28;97009;-79
2023/10/04 08:02:24;;;;;;;2.27;1.23;;;;;;;25.86;48.83;101204.28;10364477;28;96801;-79
2023/10/04 08:07:27;;;;;;;1.63;1.10;;;;;;;26.34;47.99;101212.56;10374855;28;96724;-79
2023/10/04 08:12:30;;;;;;;1.45;1.10;;;;;;;26.74;47.03;101219.66;10381550;28;96627;-79
2023/10/04 08:17:35;;;;;;;1.83;1.10;;;;;;;27.13;45.61;101223.22;10363784;28;96913;-79
2023/10/04 08:22:39;;;;;;;1.67;0.90;;;;;;;27.55;44.75;101221.03;10339384;28;96919;-79
2023/10/04 08:27:42;;;;;;;;;;;;;;;27.23;44.52;101218.69;10339834;28;97090;-79
2023/10/04 08:32:53;;;;;;;1.00;0.87;;;;;;;27.77;44.15;101218.88;10341321;28;97209;-79
2023/10/04 08:38:00;;;;;;;1.30;0.80;;;;;;;27.68;43.54;101210.81;10379907;28;98060;-79
2023/10/04 08:43:04;;;;;;;1.25;0.90;;;;;;;27.97;43.44;101217.81;10365969;28;96858;-79
2023/10/04 08:48:09;;;;;;;1.08;0.70;;;;;;;28.10;42.06;101212.91;10338583;28;97068;-79
2023/10/04 08:53:26;;;;;;;1.40;0.80;;;;;;;28.17;42.57;101210.44;10369565;28;96638;-79
2023/10/04 08:58:30;;;;;;;0.90;0.63;;;;;;;27.65;43.67;101206.50;10379580;28;97148;-79
2023/10/04 09:03:36;;;;;;;2.33;0.77;;;;;;;28.18;42.34;101214.03;10380180;28;96727;-79
2023/10/04 09:08:40;;;;;;;1.63;0.93;;;;;;;29.46;40.51;101214.53;10361446;28;97548;-80
2023/10/04 09:13:47;;;;;;;1.23;0.80;;;;;;;29.15;40.45;101230.38;10338316;28;96929;-79
2023/10/04 09:19:08;;;;;;;1.40;0.70;;;;;;;29.64;39.24;101226.25;10338152;28;97514;-79
2023/10/04 09:24:13;;;;;;;1.80;0.70;;;;;;;30.18;38.85;101225.88;10338543;28;96704;-79
2023/10/04 09:29:28;;;;;;;1.58;0.70;;;;;;;29.88;38.84;101226.38;10337575;28;96886;-79
2023/10/04 09:34:33;;;;;;;1.40;0.80;;;;;;;29.71;39.29;101224.59;10337473;28;96693;-80
2023/10/04 09:39:37;;;;;;;1.23;0.80;;;;;;;29.70;39.25;101215.59;10337103;28;96910;-79
2023/10/04 09:44:40;;;;;;;1.80;0.73;;;;;;;29.56;39.59;101220.72;10337862;28;96827;-79
2023/10/04 09:49:51;;;;;;;2.42;0.88;;;;;;;30.01;38.41;101219.50;10337018;28;97068;-79
2023/10/04 09:54:54;;;;;;;1.08;0.68;;;;;;;30.34;38.15;101225.09;10336609;28;96710;-80
2023/10/04 09:59:59;;;;;;;0.77;0.57;;;;;;;30.14;37.88;101216.38;10335799;28;97572;-79
2023/10/04 10:05:08;;;;;;;0.98;0.70;;;;;;;30.88;37.16;101216.44;10336415;28;97057;-80
2023/10/04 10:10:16;;;;;;;0.88;0.80;;;;;;;30.83;36.87;101219.69;10336305;28;96930;-79
2023/10/04 10:15:21;;;;;;;0.93;0.70;;;;;;;31.35;36.83;101214.81;10335795;28;96806;-80
2023/10/04 10:20:28;;;;;;;1.63;0.95;;;;;;;31.55;36.15;101202.53;10335785;28;96642;-80
2023/10/04 10:25:33;;;;;;;0.65;0.60;;;;;;;31.12;36.13;101198.28;10335513;28;96806;-80
2023/10/04 10:30:37;;;;;;;0.80;0.70;;;;;;;31.20;36.03;101183.81;10334933;28;96820;-80
2023/10/04 10:35:59;;;;;;;1.38;0.98;;;;;;;30.90;36.33;101179.06;10336502;28;96752;-80
2023/10/04 10:41:03;;;;;;;1.50;1.20;;;;;;;31.18;35.68;101180.44;10335342;28;96710;-80
2023/10/04 10:46:28;;;;;;;0.85;0.80;;;;;;;32.37;34.54;101188.53;10335405;28;97730;-80
2023/10/04 10:51:44;;;;;;;1.13;0.80;;;;;;;31.91;34.75;101186.69;10334392;28;97087;-80
2023/10/04 10:56:48;;;;;;;1.42;1.00;;;;;;;31.49;35.18;101177.91;10334976;28;97267;-80
2023/10/04 11:01:51;;;;;;;1.65;0.95;;;;;;;32.05;34.93;101178.59;10334239;28;96728;-80
2023/10/04 11:06:57;;;;;;;1.65;0.70;;;;;;;32.92;32.97;101170.16;10334670;28;96662;-80
2023/10/04 11:12:00;;;;;;;2.03;1.10;;;;;;;33.25;33.16;101157.94;10334518;28;96743;-80
2023/10/04 11:17:06;;;;;;;2.10;0.85;;;;;;;32.45;33.57;101163.97;10334606;28;98751;-80
2023/10/04 11:22:12;;;;;;;2.00;1.10;;;;;;;32.74;33.43;101166.00;10334143;28;97494;-80
2023/10/04 11:27:22;;;;;;;1.40;0.98;;;;;;;33.62;32.15;101165.25;10335174;28;97210;-80
2023/10/04 11:32:30;;;;;;;1.38;0.95;;;;;;;34.14;31.01;101159.72;10410591;22;98692;-80
2023/10/04 11:37:39;;;;;;;1.38;1.10;;;;;;;34.07;30.79;101147.84;10416772;28;97207;-80
2023/10/04 11:42:43;;;;;;;1.05;0.85;;;;;;;34.23;31.06;101150.38;10416371;28;97145;-80
2023/10/04 11:48:04;;;;;;;2.08;1.00;;;;;;;34.44;30.77;101145.81;10386175;28;96771;-80
2023/10/04 11:53:11;;;;;;;1.40;0.98;;;;;;;34.16;30.99;101142.06;10424302;27;96871;-80
2023/10/04 11:58:15;;;;;;;2.67;1.00;;;;;;;35.36;29.54;101141.22;10423930;27;96943;-80
2023/10/04 12:03:21;;;;;;;1.10;0.90;;;;;;;34.63;30.44;101132.56;10423936;28;97310;-80
2023/10/04 12:08:26;;;;;;;1.42;1.10;;;;;;;33.82;31.00;101132.75;10424012;27;97134;-80
2023/10/04 12:13:30;;;;;;;3.97;1.15;;;;;;;34.66;30.22;101121.22;10423702;28;97389;-80
2023/10/04 12:18:34;;;;;;;1.45;1.00;;;;;;;35.83;29.06;101119.44;10423491;28;97338;-80
2023/10/04 12:23:40;;;;;;;2.42;1.20;;;;;;;35.03;29.72;101107.28;10422876;28;96793;-80
2023/10/04 12:28:45;;;;;;;1.33;0.90;;;;;;;35.41;29.16;101101.25;10422479;28;97208;-80
2023/10/04 12:33:51;;;;;;;1.48;1.10;;;;;;;36.37;27.93;101092.06;10422009;28;97354;-80
2023/10/04 12:38:58;;;;;;;2.53;0.98;;;;;;;36.54;28.31;101091.50;10422514;28;97045;-80
2023/10/04 12:44:04;;;;;;;1.48;1.10;;;;;;;36.79;27.87;101079.91;10422528;28;96771;-80
2023/10/04 12:49:09;;;;;;;1.10;1.00;;;;;;;36.56;28.26;101072.06;10422008;28;97534;-80
2023/10/04 12:54:16;;;;;;;1.73;0.98;;;;;;;36.86;27.10;101067.03;10420252;27;96728;-80
2023/10/04 12:59:23;;;;;;;1.52;1.13;;;;;;;37.12;27.15;101059.66;10421561;28;96678;-80
2023/10/04 13:04:27;;;;;;;2.33;1.10;;;;;;;36.61;27.23;101039.38;10421748;28;96639;-81
2023/10/04 13:09:37;;;;;;;1.75;1.05;;;;;;;37.87;25.56;101055.50;10422244;28;96697;-80
2023/10/04 13:15:00;;;;;;;1.20;1.00;;;;;;;37.01;26.09;101038.34;10421190;28;97076;-80
2023/10/04 13:20:04;;;;;;;1.23;1.08;;;;;;;37.26;26.03;101028.34;10420927;28;96772;-80
2023/10/04 13:25:09;;;;;;;1.90;1.17;;;;;;;37.85;25.70;101027.38;10419685;28;97268;-80
2023/10/04 13:30:14;;;;;;;2.72;1.35;;;;;;;37.26;26.07;101016.56;10420113;28;96805;-80
2023/10/04 13:35:20;;;;;;;1.48;1.10;;;;;;;37.54;26.24;101006.13;10420607;27;96798;-80
2023/10/04 13:40:25;;;;;;;1.45;1.15;;;;;;;37.43;26.42;101017.78;10420585;27;96743;-80
2023/10/04 13:45:29;;;;;;;3.20;1.17;;;;;;;37.69;25.45;101010.28;10420629;28;97178;-80
2023/10/04 13:50:32;;;;;;;2.08;1.05;;;;;;;38.46;24.77;101003.72;10420442;27;96650;-80
2023/10/04 13:55:38;;;;;;;1.05;0.90;;;;;;;39.50;24.06;101002.75;10419859;28;96653;-80
2023/10/04 14:00:45;;;;;;;2.67;1.23;;;;;;;39.77;23.97;100993.09;10378634;28;96736;-80
2023/10/04 14:05:52;;;;;;;2.75;1.13;;;;;;;40.25;23.59;100993.06;10378171;28;97131;-80
2023/10/04 14:10:58;;;;;;;1.58;1.05;;;;;;;40.02;23.84;100992.09;10377484;28;96899;-80
2023/10/04 14:16:02;;;;;;;1.02;0.93;;;;;;;39.96;23.54;100993.91;10406103;28;97208;-80
2023/10/04 14:21:07;;;;;;;1.50;0.93;;;;;;;39.75;23.43;100977.88;10418900;28;96623;-80
2023/10/04 14:26:11;;;;;;;2.67;1.10;;;;;;;39.81;23.17;100974.16;10419067;28;96743;-80
2023/10/04 14:31:16;;;;;;;2.42;1.25;;;;;;;39.94;23.14;100976.75;10418449;28;96665;-80
2023/10/04 14:36:21;;;;;;;2.38;1.15;;;;;;;39.74;23.40;100963.22;10418609;27;97336;-80
2023/10/04 14:41:26;;;;;;;1.92;1.25;;;;;;;38.92;22.72;100959.31;10418267;28;96781;-80
2023/10/04 14:46:32;;;;;;;2.13;1.33;;;;;;;38.84;23.79;100946.69;10418264;28;97519;-80
2023/10/04 14:51:37;;;;;;;2.95;1.35;;;;;;;38.33;23.52;100946.09;10419086;28;97043;-80
2023/10/04 14:56:43;;;;;;;2.65;1.30;;;;;;;37.76;24.81;100941.56;10418580;28;97446;-80
2023/10/04 15:01:46;;;;;;;1.70;1.08;;;;;;;37.30;25.65;100936.25;10418106;28;97126;-80
2023/10/04 15:06:50;;;;;;;3.58;1.67;;;;;;;36.69;26.43;100937.66;10416456;28;97067;-80
2023/10/04 15:11:54;;;;;;;2.17;1.35;;;;;;;36.15;26.86;100928.81;10417210;28;96808;-80
2023/10/04 15:16:57;;;;;;;1.90;1.30;;;;;;;35.71;27.35;100929.31;10417695;27;96831;-80
2023/10/04 15:22:01;;;;;;;2.15;1.33;;;;;;;35.54;27.54;100928.00;10424705;27;96785;-80
2023/10/04 15:27:06;;;;;;;1.48;1.38;;;;;;;35.26;28.12;100922.59;10424291;28;98325;-80
2023/10/04 15:32:11;;;;;;;3.60;1.73;;;;;;;34.79;29.20;100924.41;10424180;27;101115;-80
2023/10/04 15:37:15;;;;;;;2.53;1.70;;;;;;;34.24;29.93;100930.69;10424383;27;97143;-80
2023/10/04 15:42:20;;;;;;;2.90;1.85;;;;;;;34.01;31.29;100921.84;10425049;28;97011;-80
2023/10/04 15:47:23;;;;;;;4.43;2.28;;;;;;;33.31;32.96;100919.75;10424427;28;96749;-79
2023/10/04 15:52:27;;;;;;;3.83;2.33;;;;;;;32.80;34.31;100919.84;10423625;27;96951;-79
2023/10/04 15:57:32;;;;;;;3.13;2.28;;;;;;;32.63;35.30;100918.34;10422834;28;96612;-79
2023/10/04 16:02:37;;;;;;;3.05;2.30;;;;;;;32.01;35.95;100921.28;10423345;27;96631;-79
2023/10/04 16:07:40;;;;;;;3.78;2.30;;;;;;;31.66;37.08;100918.25;10423895;27;97249;-79
2023/10/04 16:12:48;;;;;;;4.70;2.95;;;;;;;31.29;39.06;100928.00;10422819;28;96739;-79
2023/10/04 16:17:51;;;;;;;4.85;2.42;;;;;;;31.04;39.00;100925.53;10422949;28;97382;-79
2023/10/04 16:22:56;;;;;;;;;;;;;;;30.92;40.40;100933.19;10423612;28;96731;-79
2023/10/04 16:28:01;;;;;;;4.57;2.90;;;;;;;30.35;41.49;100931.63;10417246;27;98441;-80
2023/10/04 16:33:05;;;;;;;3.78;2.97;;;;;;;30.34;41.82;100929.91;10417987;28;97353;-79
2023/10/04 16:38:08;;;;;;;4.78;2.95;;;;;;;29.96;42.92;100933.25;10416533;28;97256;-79
2023/10/04 16:43:13;;;;;;;3.75;3.10;;;;;;;29.95;42.90;100932.41;10416878;28;96861;-79
2023/10/04 16:48:16;;;;;;;4.60;3.35;;;;;;;29.71;44.11;100935.06;10415816;28;96926;-79
2023/10/04 16:53:19;;;;;;;4.80;3.05;;;;;;;29.59;44.94;100938.31;10416793;27;96567;-79
2023/10/04 16:58:26;;;;;;;4.88;3.30;;;;;;;29.47;44.73;100943.13;10416405;27;96679;-78
2023/10/04 17:03:29;;;;;;;3.60;3.00;;;;;;;29.30;45.56;100952.22;10416320;28;97077;-79
2023/10/04 17:08:32;;;;;;;5.32;3.13;;;;;;;29.17;45.82;100957.28;10416169;28;97254;-79
2023/10/04 17:13:37;;;;;;;;;;;;;;;29.00;46.83;100969.88;10416875;28;96752;-79
2023/10/04 17:18:40;;;;;;;6.18;3.47;;;;;;;28.80;46.99;100970.22;10415937;27;96748;-79
2023/10/04 17:23:43;;;;;;;6.72;3.60;;;;;;;28.61;47.69;100975.84;10416361;28;96678;-79
2023/10/04 17:28:48;;;;;;;4.53;3.30;;;;;;;28.42;48.21;100970.63;10415188;27;96800;-79
2023/10/04 17:33:51;;;;;;;5.22;3.33;;;;;;;28.33;48.46;100975.13;10415599;28;96694;-79
2023/10/04 17:38:55;;;;;;;5.53;3.40;;;;;;;28.13;49.29;100983.56;10413991;28;97286;-78
2023/10/04 17:44:00;;;;;;;5.18;3.40;;;;;;;28.10;49.31;100984.69;10414065;27;96812;-79
2023/10/04 17:49:03;;;;;;;4.40;3.17;;;;;;;27.87;50.08;100997.00;10415288;27;97146;-78
2023/10/04 17:54:07;;;;;;;5.70;3.58;;;;;;;27.72;50.31;101006.63;10414675;27;96685;-79
2023/10/04 17:59:11;;;;;;;4.38;3.22;;;;;;;27.48;51.00;101009.00;10414310;28;96762;-79
2023/10/04 18:04:16;;;;;;;4.40;3.35;;;;;;;27.41;51.64;101007.91;10414289;28;96761;-79
2023/10/04 18:09:19;;;;;;;4.45;3.05;;;;;;;27.33;51.34;101013.22;10414015;27;96704;-79
2023/10/04 18:14:24;;;;;;;5.82;3.67;;;;;;;27.18;51.94;101012.00;10414834;28;97566;-79
2023/10/04 18:19:29;;;;;;;5.60;3.42;;;;;;;27.07;52.43;101023.84;10413844;28;96532;-78
2023/10/04 18:24:33;;;;;;;4.80;3.47;;;;;;;27.00;52.18;101026.25;10413840;28;96734;-78
2023/10/04 18:29:38;;;;;;;5.35;3.50;;;;;;;26.79;53.05;101027.44;10412416;27;96670;-78
2023/10/04 18:34:41;;;;;;;5.65;3.40;;;;;;;26.65;53.54;101036.84;10413813;28;96630;-78
2023/10/04 18:39:44;;;;;;;7.07;3.50;;;;;;;26.51;53.43;101042.69;10412691;27;96796;-79
2023/10/04 18:44:49;;;;;;;5.78;3.80;;;;;;;26.51;53.55;101053.50;10412984;28;96808;-78
2023/10/04 18:49:52;;;;;;;4.40;3.47;;;;;;;26.38;54.05;101050.25;10412943;28;96740;-78
2023/10/04 18:54:55;;;;;;;5.20;3.60;;;;;;;26.27;54.17;101052.16;10412251;28;97074;-78
2023/10/04 19:00:00;;;;;;;6.73;3.93;;;;;;;26.10;55.15;101059.13;10412780;27;96646;-78
2023/10/04 19:05:07;;;;;;;6.78;3.95;;;;;;;25.98;55.61;101065.63;10413179;28;96794;-78
2023/10/04 19:10:11;;;;;;;4.13;3.50;;;;;;;25.74;56.72;101066.00;10412254;28;96606;-78
2023/10/04 19:15:16;;;;;;;7.97;4.30;;;;;;;25.66;56.89;101073.88;10412243;28;97346;-78
2023/10/04 19:20:23;;;;;;;5.20;4.05;;;;;;;25.55;57.07;101075.84;10410930;28;96668;-78
2023/10/04 19:25:26;;;;;;;6.35;4.10;;;;;;;25.46;56.94;101080.22;10412044;28;96761;-78
2023/10/04 19:30:33;;;;;;;6.07;4.13;;;;;;;25.15;58.21;101083.03;10411461;28;96587;-78
2023/10/04 19:35:37;;;;;;;4.85;4.03;;;;;;;25.17;57.90;101097.22;10412257;28;97140;-78
2023/10/04 19:40:40;;;;;;;6.17;4.17;;;;;;;24.91;58.38;101099.44;10411492;27;96686;-78
2023/10/04 19:45:45;;;;;;;6.33;3.90;;;;;;;24.95;58.41;101108.09;10411844;28;96844;-78
2023/10/04 19:50:50;;;;;;;6.10;4.43;;;;;;;24.91;58.60;101106.66;10411532;28;96711;-78
2023/10/04 19:55:54;;;;;;;5.25;3.97;;;;;;;24.88;58.36;101105.06;10412158;28;97227;-78
2023/10/04 20:00:58;;;;;;;6.32;3.85;;;;;;;24.77;58.30;101115.91;10411066;28;96981;-78
2023/10/04 20:06:02;;;;;;;6.53;4.20;;;;;;;24.71;58.45;101103.81;10415599;27;97459;-78
2023/10/04 20:11:07;;;;;;;5.55;3.75;;;;;;;24.55;58.89;101111.47;10416753;28;97488;-78
2023/10/04 20:16:12;;;;;;;5.63;4.40;;;;;;;24.57;58.66;101108.66;10418410;28;97267;-78
2023/10/04 20:21:16;;;;;;;5.93;4.20;;;;;;;24.49;58.74;101113.81;10418043;28;97146;-78
2023/10/04 20:26:19;;;;;;;6.28;4.07;;;;;;;24.47;59.01;101116.66;10417761;27;98174;-78
2023/10/04 20:31:24;;;;;;;8.57;4.13;;;;;;;24.41;58.87;101122.53;10417314;27;96770;-78
2023/10/04 20:36:28;;;;;;;5.63;4.05;;;;;;;24.25;59.13;101119.38;10417197;27;96796;-78
2023/10/04 20:41:31;;;;;;;3.97;3.53;;;;;;;24.19;59.35;101122.56;10416838;28;97107;-78
2023/10/04 20:46:37;;;;;;;6.63;4.13;;;;;;;24.00;59.88;101122.38;10417225;28;96764;-78
2023/10/04 20:51:43;;;;;;;6.80;4.18;;;;;;;23.93;60.02;101126.53;10416992;28;96694;-78
2023/10/04 20:56:47;;;;;;;6.70;4.40;;;;;;;23.81;60.25;101124.81;10417003;27;96811;-78
2023/10/04 21:01:52;;;;;;;6.45;3.97;;;;;;;23.70;60.43;101124.84;10415213;28;97201;-78
2023/10/04 21:06:56;;;;;;;6.65;4.15;;;;;;;23.53;61.12;101126.16;10416721;28;97112;-78
2023/10/04 21:12:00;;;;;;;;;;;;;;;23.47;61.82;101128.47;10417381;27;96895;-78
2023/10/04 21:17:07;;;;;;;6.20;4.37;;;;;;;23.09;61.78;101125.25;10415285;27;96663;-78
2023/10/04 21:22:10;;;;;;;8.73;4.28;;;;;;;23.48;60.94;101120.28;10415467;28;96916;-78
2023/10/04 21:27:22;;;;;;;7.00;3.95;;;;;;;23.35;61.16;101124.94;10415763;28;97507;-78
2023/10/04 21:32:35;;;;;;;4.80;3.88;;;;;;;23.42;61.38;101125.31;10415734;27;97216;-78
2023/10/04 21:37:40;;;;;;;6.15;3.60;;;;;;;23.27;61.94;101131.84;10416287;27;96922;-78
2023/10/04 21:42:45;;;;;;;5.70;3.97;;;;;;;23.20;62.04;101117.22;10414906;27;97116;-78
2023/10/04 21:48:00;;;;;;;5.28;3.95;;;;;;;23.35;61.52;101127.63;10415329;27;97022;-78
2023/10/04 21:53:04;;;;;;;7.72;4.10;;;;;;;22.96;62.72;101114.59;10414218;28;96755;-78
2023/10/04 21:58:09;;;;;;;7.60;3.87;;;;;;;22.90;62.85;101125.81;10414687;28;96827;-78
2023/10/04 22:03:16;;;;;;;6.90;3.80;;;;;;;22.49;63.94;101123.53;10415330;28;97016;-78
2023/10/04 22:08:19;;;;;;;6.75;3.97;;;;;;;22.59;63.61;101121.03;10413903;28;96822;-78
2023/10/04 22:13:24;;;;;;;6.88;4.13;;;;;;;22.61;63.33;101119.94;10414873;28;97081;-78
2023/10/04 22:18:32;;;;;;;6.32;4.03;;;;;;;22.64;63.23;101119.69;10413708;28;96890;-78
2023/10/04 22:23:35;;;;;;;10.18;4.50;;;;;;;22.19;64.24;101115.13;10413635;28;97413;-78
2023/10/04 22:28:41;;;;;;;6.68;4.60;;;;;;;22.06;64.90;101119.66;10413981;28;96855;-78
2023/10/04 22:33:47;;;;;;;5.18;3.67;;;;;;;22.33;64.18;101122.13;10413705;27;96975;-78
2023/10/04 22:38:51;;;;;;;8.02;4.90;;;;;;;22.34;64.00;101116.66;10413100;28;97140;-78
2023/10/04 22:43:55;;;;;;;6.40;4.22;;;;;;;22.18;64.45;101126.78;10412119;27;97344;-78
2023/10/04 22:49:00;;;;;;;6.83;4.43;;;;;;;22.26;63.90;101128.91;10413253;28;97109;-78
2023/10/04 22:54:06;;;;;;;7.40;4.43;;;;;;;21.88;65.13;101129.03;10412838;28;97055;-78
2023/10/04 22:59:12;;;;;;;;;;;;;;;21.99;65.41;101139.84;10413208;28;96717;-78
2023/10/04 23:04:19;;;;;;;8.60;4.15;;;;;;;21.96;64.45;101139.16;10412608;27;96671;-78
2023/10/04 23:09:25;;;;;;;6.82;4.63;;;;;;;21.98;64.30;101142.59;10412571;28;96949;-78
2023/10/04 23:14:33;;;;;;;9.25;4.53;;;;;;;21.89;64.58;101127.19;10412399;27;96673;-78
2023/10/04 23:19:45;;;;;;;5.90;4.15;;;;;;;21.50;65.89;101123.72;10412822;28;97171;-78
2023/10/04 23:24:54;;;;;;;6.28;4.40;;;;;;;21.32;66.46;101125.03;10412044;28;97032;-78
2023/10/04 23:29:58;;;;;;;6.45;4.57;;;;;;;21.49;66.17;101122.00;10411688;28;96632;-78